Wetterdaten: aktuell Mittwoch, 26.06.2019 10:20
Datum Zeit Temp. A. Temp. 5cm Feuchte A. Luftdruck Regen Wind Richtung Richtung Taupunkt Windchill Windben Empfang
26.06.2019 10:20 27,4 C 28,3 C 71 % 1024,1 hPa 0,0 l/m 1,2 km/h (1 Bft) O-NO 76 21,7 C 27,4 C 3,2 km/h (1 Bft) 100 %
26.06.2019 10:18 27,5 C 27,8 C 71 % 1024,1 hPa 0,0 l/m 2,5 km/h (1 Bft) O-NO 76 21,8 C 27,5 C 4,8 km/h (1 Bft) 98 %
26.06.2019 10:16 27,7 C 27,8 C 65 % 1024,1 hPa 0,0 l/m 3,0 km/h (1 Bft) W 278 20,5 C 27,7 C 4,8 km/h (1 Bft) 100 %
26.06.2019 10:14 27,3 C 27,8 C 69 % 1024,1 hPa 0,0 l/m 4,2 km/h (1 Bft) SW 221 21,1 C 27,3 C 6,4 km/h (2 Bft) 100 %
26.06.2019 10:12 27,0 C 27,8 C 68 % 1024,0 hPa 0,0 l/m 1,3 km/h (1 Bft) S-SW 202 20,6 C 27,0 C 4,8 km/h (1 Bft) 100 %
26.06.2019 10:10 27,1 C 27,8 C 72 % 1024,0 hPa 0,0 l/m 2,2 km/h (1 Bft) O-NO 76 21,6 C 27,1 C 4,8 km/h (1 Bft) 100 %
26.06.2019 10:08 27,1 C 27,8 C 72 % 1024,0 hPa 0,0 l/m 3,1 km/h (1 Bft) O-NO 71 21,6 C 27,1 C 4,8 km/h (1 Bft) 100 %
26.06.2019 10:06 27,0 C 27,8 C 69 % 1024,0 hPa 0,0 l/m 3,5 km/h (1 Bft) O 97 20,8 C 27,0 C 4,8 km/h (1 Bft) 96 %
26.06.2019 10:04 26,9 C 27,8 C 69 % 1024,0 hPa 0,0 l/m 2,7 km/h (1 Bft) O-NO 76 20,7 C 26,9 C 4,8 km/h (1 Bft) 100 %
26.06.2019 10:02 27,0 C 27,2 C 67 % 1024,1 hPa 0,0 l/m 2,8 km/h (1 Bft) O-SO 121 20,3 C 27,0 C 4,8 km/h (1 Bft) 100 %
26.06.2019 10:00 27,1 C 27,2 C 70 % 1024,1 hPa 0,0 l/m 1,6 km/h (1 Bft) O-NO 60 21,1 C 27,1 C 3,2 km/h (1 Bft) 98 %
26.06.2019 09:58 27,1 C 27,2 C 73 % 1024,1 hPa 0,0 l/m 0,6 km/h (0 Bft) O-NO 64 21,8 C 27,1 C 1,6 km/h (1 Bft) 96 %
26.06.2019 09:56 26,9 C 27,2 C 71 % 1024,2 hPa 0,0 l/m 0,4 km/h (0 Bft) O-NO 64 21,2 C 26,9 C 1,6 km/h (1 Bft) 92 %
26.06.2019 09:54 26,8 C 27,2 C 74 % 1024,2 hPa 0,0 l/m 2,9 km/h (1 Bft) O-NO 64 21,8 C 26,8 C 4,8 km/h (1 Bft) 96 %
26.06.2019 09:52 26,3 C 27,2 C 71 % 1024,2 hPa 0,0 l/m 1,8 km/h (1 Bft) O-NO 74 20,6 C 26,3 C 3,2 km/h (1 Bft) 95 %
26.06.2019 09:50 26,2 C 27,2 C 71 % 1024,2 hPa 0,0 l/m 2,5 km/h (1 Bft) O 86 20,5 C 26,2 C 3,2 km/h (1 Bft) 94 %
26.06.2019 09:48 26,4 C 26,7 C 73 % 1024,2 hPa 0,0 l/m 3,7 km/h (1 Bft) O 86 21,2 C 26,4 C 6,4 km/h (2 Bft) 95 %
26.06.2019 09:46 26,4 C 26,7 C 71 % 1024,2 hPa 0,0 l/m 3,1 km/h (1 Bft) O 80 20,7 C 26,4 C 4,8 km/h (1 Bft) 94 %
26.06.2019 09:44 26,4 C 26,7 C 71 % 1024,2 hPa 0,0 l/m 3,0 km/h (1 Bft) O 82 20,7 C 26,4 C 6,4 km/h (2 Bft) 94 %
26.06.2019 09:42 26,2 C 26,7 C 71 % 1024,2 hPa 0,0 l/m 3,5 km/h (1 Bft) O-NO 65 20,5 C 26,2 C 4,8 km/h (1 Bft) 95 %
26.06.2019 09:40 26,1 C 26,7 C 73 % 1024,2 hPa 0,0 l/m 4,3 km/h (1 Bft) O-NO 70 20,9 C 26,1 C 6,4 km/h (2 Bft) 96 %
26.06.2019 09:38 25,9 C 26,7 C 71 % 1024,2 hPa 0,0 l/m 2,3 km/h (1 Bft) O-NO 70 20,2 C 25,9 C 6,4 km/h (2 Bft) 96 %
26.06.2019 09:36 26,1 C 26,7 C 73 % 1024,1 hPa 0,0 l/m 3,1 km/h (1 Bft) O-SO 105 20,9 C 26,1 C 4,8 km/h (1 Bft) 93 %
26.06.2019 09:34 26,0 C 26,7 C 75 % 1024,2 hPa 0,0 l/m 3,6 km/h (1 Bft) O 82 21,2 C 26,0 C 6,4 km/h (2 Bft) 96 %
26.06.2019 09:32 25,8 C 26,7 C 73 % 1024,2 hPa 0,0 l/m 2,3 km/h (1 Bft) O-NO 76 20,6 C 25,8 C 4,8 km/h (1 Bft) 96 %
26.06.2019 09:30 25,9 C 26,7 C 76 % 1024,2 hPa 0,0 l/m 3,9 km/h (1 Bft) O-NO 71 21,3 C 25,9 C 6,4 km/h (2 Bft) 98 %
26.06.2019 09:28 25,7 C 26,7 C 74 % 1024,1 hPa 0,0 l/m 3,2 km/h (1 Bft) O 82 20,7 C 25,7 C 4,8 km/h (1 Bft) 98 %
26.06.2019 09:26 25,8 C 26,7 C 76 % 1024,2 hPa 0,0 l/m 3,6 km/h (1 Bft) O-NO 75 21,2 C 25,8 C 6,4 km/h (2 Bft) 93 %
26.06.2019 09:24 25,6 C 26,7 C 73 % 1024,1 hPa 0,0 l/m 3,1 km/h (1 Bft) O-NO 76 20,4 C 25,6 C 8,0 km/h (2 Bft) 98 %
26.06.2019 09:22 25,6 C 26,1 C 75 % 1024,1 hPa 0,0 l/m 3,3 km/h (1 Bft) O 96 20,8 C 25,6 C 6,4 km/h (2 Bft) 98 %
26.06.2019 09:20 25,7 C 26,1 C 74 % 1024,1 hPa 0,0 l/m 3,9 km/h (1 Bft) O-NO 78 20,7 C 25,7 C 6,4 km/h (2 Bft) 100 %
_ Min-Zeit 05:52 04:12 10:16 01:42 - 00:20 - - 05:52 05:52 00:20 02:44
Minimum _ 18,0 C 18,3 C 65 % 1022,6 hPa - 0,0 km/h (0 Bft) - - 16,7 C 18,0 C 0,0 km/h (0 Bft) 90 %
_ Max-Zeit 10:16 10:20 06:04 09:26 00:00 08:38 - - 09:58 10:16 08:38 00:02
Maximum _ 27,7 C 28,3 C 94 % 1024,2 hPa 0,0 l/m 7,1 km/h
O (2 Bft)
- - 21,8 C 27,7 C 11,3 km/h
O (2 Bft)
100 %
Durchschnitt _ 21,8 C 21,2 C 84 % 1023,2 hPa #0,0 l/m 2,0 km/h (1 Bft) O-NO - 19,0 C 21,8 C 3,3 km/h (1 Bft) 98 %